sensor_id;sensor_type;location;lat;lon;timestamp;P1;durP1;ratioP1;P2;durP2;ratioP2
11348;SDS011;5729;43.570;27.826;2023-02-15T00:01:51;13.77;;;8.80;;
11348;SDS011;5729;43.570;27.826;2023-02-15T00:04:18;12.60;;;8.43;;
11348;SDS011;5729;43.570;27.826;2023-02-15T00:06:45;14.03;;;8.67;;
11348;SDS011;5729;43.570;27.826;2023-02-15T00:09:12;14.90;;;8.87;;
11348;SDS011;5729;43.570;27.826;2023-02-15T00:11:38;13.43;;;8.67;;
11348;SDS011;5729;43.570;27.826;2023-02-15T00:16:43;15.67;;;9.23;;
11348;SDS011;5729;43.570;27.826;2023-02-15T00:19:10;13.23;;;8.57;;
11348;SDS011;5729;43.570;27.826;2023-02-15T00:21:38;13.03;;;8.60;;
11348;SDS011;5729;43.570;27.826;2023-02-15T00:24:04;11.40;;;8.37;;
11348;SDS011;5729;43.570;27.826;2023-02-15T00:26:32;13.03;;;8.30;;
11348;SDS011;5729;43.570;27.826;2023-02-15T00:28:58;13.60;;;8.80;;
11348;SDS011;5729;43.570;27.826;2023-02-15T00:31:24;12.97;;;9.10;;
11348;SDS011;5729;43.570;27.826;2023-02-15T00:33:50;12.73;;;8.70;;
11348;SDS011;5729;43.570;27.826;2023-02-15T00:36:16;17.90;;;9.33;;
11348;SDS011;5729;43.570;27.826;2023-02-15T00:38:41;13.03;;;9.00;;
11348;SDS011;5729;43.570;27.826;2023-02-15T00:41:07;15.23;;;8.68;;
11348;SDS011;5729;43.570;27.826;2023-02-15T00:43:34;18.00;;;9.83;;
11348;SDS011;5729;43.570;27.826;2023-02-15T00:46:00;13.57;;;8.43;;
11348;SDS011;5729;43.570;27.826;2023-02-15T00:48:27;14.50;;;9.30;;
11348;SDS011;5729;43.570;27.826;2023-02-15T00:50:53;14.97;;;9.63;;
11348;SDS011;5729;43.570;27.826;2023-02-15T00:53:20;17.33;;;10.13;;
11348;SDS011;5729;43.570;27.826;2023-02-15T00:55:46;16.57;;;9.97;;
11348;SDS011;5729;43.570;27.826;2023-02-15T00:58:12;13.87;;;9.07;;
11348;SDS011;5729;43.570;27.826;2023-02-15T01:00:38;14.93;;;8.83;;
11348;SDS011;5729;43.570;27.826;2023-02-15T01:03:06;16.60;;;9.40;;
11348;SDS011;5729;43.570;27.826;2023-02-15T01:05:32;13.17;;;8.67;;
11348;SDS011;5729;43.570;27.826;2023-02-15T01:07:58;15.83;;;9.63;;
11348;SDS011;5729;43.570;27.826;2023-02-15T01:10:24;17.40;;;9.80;;
11348;SDS011;5729;43.570;27.826;2023-02-15T01:12:51;16.67;;;10.07;;
11348;SDS011;5729;43.570;27.826;2023-02-15T01:15:17;15.30;;;9.00;;
11348;SDS011;5729;43.570;27.826;2023-02-15T01:17:43;16.20;;;10.13;;
11348;SDS011;5729;43.570;27.826;2023-02-15T01:20:14;17.03;;;9.23;;
11348;SDS011;5729;43.570;27.826;2023-02-15T01:22:40;21.10;;;10.13;;
11348;SDS011;5729;43.570;27.826;2023-02-15T01:25:05;16.50;;;10.13;;
11348;SDS011;5729;43.570;27.826;2023-02-15T01:27:31;16.43;;;9.37;;
11348;SDS011;5729;43.570;27.826;2023-02-15T01:29:56;14.67;;;8.90;;
11348;SDS011;5729;43.570;27.826;2023-02-15T01:32:22;12.87;;;8.87;;
11348;SDS011;5729;43.570;27.826;2023-02-15T01:34:48;17.00;;;10.07;;
11348;SDS011;5729;43.570;27.826;2023-02-15T01:37:13;15.30;;;8.97;;
11348;SDS011;5729;43.570;27.826;2023-02-15T01:39:39;15.53;;;9.53;;
11348;SDS011;5729;43.570;27.826;2023-02-15T01:42:04;13.97;;;8.77;;
11348;SDS011;5729;43.570;27.826;2023-02-15T01:47:12;14.30;;;8.63;;
11348;SDS011;5729;43.570;27.826;2023-02-15T01:49:42;14.40;;;9.63;;
11348;SDS011;5729;43.570;27.826;2023-02-15T01:52:10;14.60;;;9.23;;
11348;SDS011;5729;43.570;27.826;2023-02-15T01:54:41;18.90;;;9.90;;
11348;SDS011;5729;43.570;27.826;2023-02-15T01:57:13;14.93;;;9.33;;
11348;SDS011;5729;43.570;27.826;2023-02-15T01:59:43;14.03;;;8.53;;
11348;SDS011;5729;43.570;27.826;2023-02-15T02:02:13;19.27;;;9.93;;
11348;SDS011;5729;43.570;27.826;2023-02-15T02:04:44;16.07;;;9.37;;
11348;SDS011;5729;43.570;27.826;2023-02-15T02:07:17;16.83;;;9.90;;
11348;SDS011;5729;43.570;27.826;2023-02-15T02:09:45;14.37;;;8.00;;
11348;SDS011;5729;43.570;27.826;2023-02-15T02:12:11;14.83;;;8.83;;
11348;SDS011;5729;43.570;27.826;2023-02-15T02:14:38;14.17;;;8.83;;
11348;SDS011;5729;43.570;27.826;2023-02-15T02:17:13;17.03;;;9.90;;
11348;SDS011;5729;43.570;27.826;2023-02-15T02:33:54;15.20;;;8.97;;
11348;SDS011;5729;43.570;27.826;2023-02-15T02:41:51;15.43;;;8.50;;
11348;SDS011;5729;43.570;27.826;2023-02-15T02:47:01;13.73;;;8.40;;
11348;SDS011;5729;43.570;27.826;2023-02-15T02:49:34;11.87;;;7.00;;
11348;SDS011;5729;43.570;27.826;2023-02-15T02:52:03;14.37;;;8.27;;
11348;SDS011;5729;43.570;27.826;2023-02-15T02:54:32;13.03;;;7.93;;
11348;SDS011;5729;43.570;27.826;2023-02-15T02:57:00;13.97;;;8.57;;
11348;SDS011;5729;43.570;27.826;2023-02-15T02:59:36;15.57;;;7.43;;
11348;SDS011;5729;43.570;27.826;2023-02-15T03:02:08;12.47;;;8.20;;
11348;SDS011;5729;43.570;27.826;2023-02-15T03:04:38;15.17;;;8.40;;
11348;SDS011;5729;43.570;27.826;2023-02-15T03:07:08;14.07;;;7.40;;
11348;SDS011;5729;43.570;27.826;2023-02-15T03:09:38;13.23;;;8.17;;
11348;SDS011;5729;43.570;27.826;2023-02-15T03:12:18;12.80;;;8.73;;
11348;SDS011;5729;43.570;27.826;2023-02-15T03:14:48;12.77;;;8.47;;
11348;SDS011;5729;43.570;27.826;2023-02-15T03:17:20;11.67;;;7.57;;
11348;SDS011;5729;43.570;27.826;2023-02-15T03:19:47;13.60;;;8.40;;
11348;SDS011;5729;43.570;27.826;2023-02-15T03:22:18;11.90;;;7.63;;
11348;SDS011;5729;43.570;27.826;2023-02-15T03:24:51;15.73;;;8.00;;
11348;SDS011;5729;43.570;27.826;2023-02-15T03:27:22;14.63;;;8.70;;
11348;SDS011;5729;43.570;27.826;2023-02-15T03:29:55;12.13;;;7.60;;
11348;SDS011;5729;43.570;27.826;2023-02-15T03:32:25;11.77;;;7.47;;
11348;SDS011;5729;43.570;27.826;2023-02-15T03:34:54;9.63;;;7.57;;
11348;SDS011;5729;43.570;27.826;2023-02-15T03:43:06;15.30;;;8.40;;
11348;SDS011;5729;43.570;27.826;2023-02-15T03:45:34;12.50;;;7.83;;
11348;SDS011;5729;43.570;27.826;2023-02-15T03:48:20;13.43;;;7.87;;
11348;SDS011;5729;43.570;27.826;2023-02-15T03:50:49;15.00;;;8.30;;
11348;SDS011;5729;43.570;27.826;2023-02-15T03:53:35;12.00;;;7.70;;
11348;SDS011;5729;43.570;27.826;2023-02-15T03:56:01;12.33;;;8.60;;
11348;SDS011;5729;43.570;27.826;2023-02-15T03:58:27;15.93;;;10.17;;
11348;SDS011;5729;43.570;27.826;2023-02-15T04:01:55;18.87;;;11.07;;
11348;SDS011;5729;43.570;27.826;2023-02-15T04:04:22;19.93;;;12.07;;
11348;SDS011;5729;43.570;27.826;2023-02-15T04:07:09;21.50;;;12.70;;
11348;SDS011;5729;43.570;27.826;2023-02-15T04:09:35;16.70;;;10.30;;
11348;SDS011;5729;43.570;27.826;2023-02-15T04:12:19;14.87;;;8.07;;
11348;SDS011;5729;43.570;27.826;2023-02-15T04:14:45;11.40;;;7.57;;
11348;SDS011;5729;43.570;27.826;2023-02-15T04:17:29;14.30;;;8.07;;
11348;SDS011;5729;43.570;27.826;2023-02-15T04:19:55;11.47;;;7.87;;
11348;SDS011;5729;43.570;27.826;2023-02-15T04:22:39;15.60;;;8.53;;
11348;SDS011;5729;43.570;27.826;2023-02-15T04:25:22;17.13;;;8.17;;
11348;SDS011;5729;43.570;27.826;2023-02-15T04:27:49;16.07;;;8.73;;
11348;SDS011;5729;43.570;27.826;2023-02-15T04:30:17;13.13;;;8.50;;
11348;SDS011;5729;43.570;27.826;2023-02-15T04:32:45;12.10;;;7.73;;
11348;SDS011;5729;43.570;27.826;2023-02-15T04:35:10;15.13;;;8.07;;
11348;SDS011;5729;43.570;27.826;2023-02-15T04:37:36;14.80;;;9.27;;
11348;SDS011;5729;43.570;27.826;2023-02-15T04:40:03;13.10;;;8.73;;
11348;SDS011;5729;43.570;27.826;2023-02-15T04:42:30;17.77;;;7.67;;
11348;SDS011;5729;43.570;27.826;2023-02-15T04:44:55;14.67;;;8.80;;
11348;SDS011;5729;43.570;27.826;2023-02-15T04:47:21;15.90;;;10.20;;
11348;SDS011;5729;43.570;27.826;2023-02-15T04:49:47;17.47;;;9.93;;
11348;SDS011;5729;43.570;27.826;2023-02-15T04:52:12;13.73;;;9.30;;
11348;SDS011;5729;43.570;27.826;2023-02-15T04:54:38;15.07;;;9.03;;
11348;SDS011;5729;43.570;27.826;2023-02-15T04:57:04;12.27;;;7.47;;
11348;SDS011;5729;43.570;27.826;2023-02-15T04:59:30;17.33;;;10.00;;
11348;SDS011;5729;43.570;27.826;2023-02-15T05:01:56;18.13;;;10.93;;
11348;SDS011;5729;43.570;27.826;2023-02-15T05:04:22;21.00;;;10.87;;
11348;SDS011;5729;43.570;27.826;2023-02-15T05:06:47;17.87;;;11.20;;
11348;SDS011;5729;43.570;27.826;2023-02-15T05:09:14;16.87;;;10.00;;
11348;SDS011;5729;43.570;27.826;2023-02-15T05:11:40;18.47;;;10.67;;
11348;SDS011;5729;43.570;27.826;2023-02-15T05:14:05;15.27;;;10.07;;
11348;SDS011;5729;43.570;27.826;2023-02-15T05:16:31;20.97;;;10.70;;
11348;SDS011;5729;43.570;27.826;2023-02-15T05:18:56;16.73;;;10.83;;
11348;SDS011;5729;43.570;27.826;2023-02-15T05:21:22;18.10;;;10.27;;
11348;SDS011;5729;43.570;27.826;2023-02-15T05:23:47;16.43;;;11.40;;
11348;SDS011;5729;43.570;27.826;2023-02-15T05:26:15;17.73;;;11.10;;
11348;SDS011;5729;43.570;27.826;2023-02-15T05:29:01;17.87;;;11.63;;
11348;SDS011;5729;43.570;27.826;2023-02-15T05:31:27;19.00;;;11.33;;
11348;SDS011;5729;43.570;27.826;2023-02-15T05:33:52;16.87;;;11.37;;
11348;SDS011;5729;43.570;27.826;2023-02-15T05:36:18;13.73;;;9.80;;
11348;SDS011;5729;43.570;27.826;2023-02-15T05:38:43;17.57;;;10.17;;
11348;SDS011;5729;43.570;27.826;2023-02-15T05:41:09;19.17;;;10.07;;
11348;SDS011;5729;43.570;27.826;2023-02-15T05:43:36;17.00;;;10.40;;
11348;SDS011;5729;43.570;27.826;2023-02-15T05:46:02;18.47;;;9.37;;
11348;SDS011;5729;43.570;27.826;2023-02-15T05:48:29;15.90;;;8.47;;
11348;SDS011;5729;43.570;27.826;2023-02-15T05:51:02;17.77;;;9.97;;
11348;SDS011;5729;43.570;27.826;2023-02-15T05:53:36;19.53;;;10.27;;
11348;SDS011;5729;43.570;27.826;2023-02-15T05:56:02;18.90;;;10.33;;
11348;SDS011;5729;43.570;27.826;2023-02-15T05:58:36;18.30;;;11.27;;
11348;SDS011;5729;43.570;27.826;2023-02-15T06:01:10;15.30;;;9.90;;
11348;SDS011;5729;43.570;27.826;2023-02-15T06:03:37;14.90;;;9.10;;
11348;SDS011;5729;43.570;27.826;2023-02-15T06:06:03;17.40;;;9.17;;
11348;SDS011;5729;43.570;27.826;2023-02-15T06:08:29;13.63;;;8.60;;
11348;SDS011;5729;43.570;27.826;2023-02-15T06:10:58;18.47;;;8.83;;
11348;SDS011;5729;43.570;27.826;2023-02-15T06:13:24;17.50;;;9.47;;
11348;SDS011;5729;43.570;27.826;2023-02-15T06:15:50;17.37;;;10.17;;
11348;SDS011;5729;43.570;27.826;2023-02-15T06:18:16;19.60;;;10.00;;
11348;SDS011;5729;43.570;27.826;2023-02-15T06:20:41;24.97;;;12.17;;
11348;SDS011;5729;43.570;27.826;2023-02-15T06:23:06;14.47;;;9.20;;
11348;SDS011;5729;43.570;27.826;2023-02-15T06:25:32;20.00;;;11.40;;
11348;SDS011;5729;43.570;27.826;2023-02-15T06:27:57;19.07;;;11.23;;
11348;SDS011;5729;43.570;27.826;2023-02-15T06:30:23;17.47;;;10.53;;
11348;SDS011;5729;43.570;27.826;2023-02-15T06:32:48;28.07;;;16.53;;
11348;SDS011;5729;43.570;27.826;2023-02-15T06:35:13;69.00;;;33.97;;
11348;SDS011;5729;43.570;27.826;2023-02-15T06:37:39;31.03;;;15.37;;
11348;SDS011;5729;43.570;27.826;2023-02-15T06:40:04;17.77;;;10.10;;
11348;SDS011;5729;43.570;27.826;2023-02-15T06:42:30;23.30;;;13.47;;
11348;SDS011;5729;43.570;27.826;2023-02-15T06:44:56;18.03;;;9.93;;
11348;SDS011;5729;43.570;27.826;2023-02-15T06:47:22;19.97;;;10.93;;
11348;SDS011;5729;43.570;27.826;2023-02-15T06:49:47;16.93;;;9.57;;
11348;SDS011;5729;43.570;27.826;2023-02-15T06:52:12;18.87;;;10.93;;
11348;SDS011;5729;43.570;27.826;2023-02-15T06:54:38;14.60;;;9.10;;
11348;SDS011;5729;43.570;27.826;2023-02-15T06:57:03;14.70;;;9.00;;
11348;SDS011;5729;43.570;27.826;2023-02-15T06:59:29;16.63;;;8.87;;
11348;SDS011;5729;43.570;27.826;2023-02-15T07:01:54;12.13;;;8.97;;
11348;SDS011;5729;43.570;27.826;2023-02-15T07:04:20;11.87;;;7.33;;
11348;SDS011;5729;43.570;27.826;2023-02-15T07:06:45;14.33;;;8.37;;
11348;SDS011;5729;43.570;27.826;2023-02-15T07:09:11;15.20;;;8.87;;
11348;SDS011;5729;43.570;27.826;2023-02-15T07:11:37;12.73;;;8.20;;
11348;SDS011;5729;43.570;27.826;2023-02-15T07:14:21;24.30;;;18.27;;
11348;SDS011;5729;43.570;27.826;2023-02-15T07:16:47;16.00;;;10.13;;
11348;SDS011;5729;43.570;27.826;2023-02-15T07:19:12;16.73;;;10.50;;
11348;SDS011;5729;43.570;27.826;2023-02-15T07:21:38;16.70;;;9.43;;
11348;SDS011;5729;43.570;27.826;2023-02-15T07:24:03;20.57;;;13.00;;
11348;SDS011;5729;43.570;27.826;2023-02-15T07:26:30;14.57;;;9.07;;
11348;SDS011;5729;43.570;27.826;2023-02-15T07:28:56;12.47;;;8.33;;
11348;SDS011;5729;43.570;27.826;2023-02-15T07:31:22;12.97;;;8.43;;
11348;SDS011;5729;43.570;27.826;2023-02-15T07:33:47;15.60;;;9.83;;
11348;SDS011;5729;43.570;27.826;2023-02-15T07:36:13;12.60;;;8.67;;
11348;SDS011;5729;43.570;27.826;2023-02-15T07:38:40;18.23;;;10.53;;
11348;SDS011;5729;43.570;27.826;2023-02-15T07:41:07;17.33;;;9.87;;
11348;SDS011;5729;43.570;27.826;2023-02-15T07:43:37;17.57;;;10.67;;
11348;SDS011;5729;43.570;27.826;2023-02-15T07:46:14;16.53;;;9.93;;
11348;SDS011;5729;43.570;27.826;2023-02-15T07:48:41;26.70;;;15.93;;
11348;SDS011;5729;43.570;27.826;2023-02-15T07:51:08;21.00;;;12.50;;
11348;SDS011;5729;43.570;27.826;2023-02-15T07:53:35;33.40;;;18.63;;
11348;SDS011;5729;43.570;27.826;2023-02-15T07:56:02;20.63;;;12.00;;
11348;SDS011;5729;43.570;27.826;2023-02-15T07:58:32;14.80;;;10.10;;
11348;SDS011;5729;43.570;27.826;2023-02-15T08:01:27;15.27;;;8.57;;
11348;SDS011;5729;43.570;27.826;2023-02-15T08:03:54;15.73;;;9.07;;
11348;SDS011;5729;43.570;27.826;2023-02-15T08:06:21;17.45;;;12.85;;
11348;SDS011;5729;43.570;27.826;2023-02-15T08:08:48;17.90;;;12.93;;
11348;SDS011;5729;43.570;27.826;2023-02-15T08:11:14;18.92;;;10.32;;
11348;SDS011;5729;43.570;27.826;2023-02-15T08:14:02;15.85;;;11.05;;
11348;SDS011;5729;43.570;27.826;2023-02-15T08:18:55;13.82;;;8.50;;
11348;SDS011;5729;43.570;27.826;2023-02-15T08:21:21;14.15;;;8.98;;
11348;SDS011;5729;43.570;27.826;2023-02-15T08:23:47;14.10;;;11.77;;
11348;SDS011;5729;43.570;27.826;2023-02-15T08:26:13;11.60;;;7.93;;
11348;SDS011;5729;43.570;27.826;2023-02-15T08:28:40;13.93;;;8.30;;
11348;SDS011;5729;43.570;27.826;2023-02-15T08:31:07;14.02;;;8.75;;
11348;SDS011;5729;43.570;27.826;2023-02-15T08:33:34;14.82;;;9.10;;
11348;SDS011;5729;43.570;27.826;2023-02-15T08:36:05;8.95;;;6.18;;
11348;SDS011;5729;43.570;27.826;2023-02-15T08:38:32;9.57;;;6.93;;
11348;SDS011;5729;43.570;27.826;2023-02-15T08:41:08;12.88;;;6.68;;
11348;SDS011;5729;43.570;27.826;2023-02-15T08:43:42;11.15;;;6.38;;
11348;SDS011;5729;43.570;27.826;2023-02-15T08:46:09;12.85;;;6.72;;
11348;SDS011;5729;43.570;27.826;2023-02-15T08:48:35;9.68;;;6.97;;
11348;SDS011;5729;43.570;27.826;2023-02-15T08:51:04;12.38;;;8.07;;
11348;SDS011;5729;43.570;27.826;2023-02-15T08:53:40;10.73;;;7.68;;
11348;SDS011;5729;43.570;27.826;2023-02-15T08:56:07;11.23;;;7.57;;
11348;SDS011;5729;43.570;27.826;2023-02-15T08:58:34;12.40;;;8.25;;
11348;SDS011;5729;43.570;27.826;2023-02-15T09:01:00;10.45;;;7.10;;
11348;SDS011;5729;43.570;27.826;2023-02-15T09:03:27;16.90;;;8.93;;
11348;SDS011;5729;43.570;27.826;2023-02-15T09:05:57;12.43;;;9.30;;
11348;SDS011;5729;43.570;27.826;2023-02-15T09:08:26;12.02;;;7.47;;
11348;SDS011;5729;43.570;27.826;2023-02-15T09:10:52;12.68;;;8.55;;
11348;SDS011;5729;43.570;27.826;2023-02-15T09:13:18;10.32;;;7.38;;
11348;SDS011;5729;43.570;27.826;2023-02-15T09:15:44;12.70;;;9.00;;
11348;SDS011;5729;43.570;27.826;2023-02-15T09:18:09;10.30;;;7.20;;
11348;SDS011;5729;43.570;27.826;2023-02-15T09:20:37;12.90;;;8.50;;
11348;SDS011;5729;43.570;27.826;2023-02-15T09:23:02;9.10;;;7.20;;
11348;SDS011;5729;43.570;27.826;2023-02-15T09:25:28;9.48;;;7.47;;
11348;SDS011;5729;43.570;27.826;2023-02-15T09:27:54;14.70;;;11.25;;
11348;SDS011;5729;43.570;27.826;2023-02-15T09:30:19;9.00;;;7.03;;
11348;SDS011;5729;43.570;27.826;2023-02-15T09:32:45;12.07;;;7.57;;
11348;SDS011;5729;43.570;27.826;2023-02-15T09:35:11;18.80;;;14.40;;
11348;SDS011;5729;43.570;27.826;2023-02-15T09:37:37;14.23;;;11.63;;
11348;SDS011;5729;43.570;27.826;2023-02-15T09:40:03;15.95;;;7.13;;
11348;SDS011;5729;43.570;27.826;2023-02-15T09:45:11;9.00;;;7.57;;
11348;SDS011;5729;43.570;27.826;2023-02-15T09:50:49;11.02;;;7.72;;
11348;SDS011;5729;43.570;27.826;2023-02-15T09:56:15;12.85;;;7.32;;
11348;SDS011;5729;43.570;27.826;2023-02-15T10:12:32;15.43;;;10.63;;
11348;SDS011;5729;43.570;27.826;2023-02-15T10:18:14;11.07;;;7.82;;
11348;SDS011;5729;43.570;27.826;2023-02-15T10:21:11;13.55;;;7.35;;
11348;SDS011;5729;43.570;27.826;2023-02-15T10:26:25;12.48;;;8.50;;
11348;SDS011;5729;43.570;27.826;2023-02-15T10:32:09;14.20;;;7.85;;
11348;SDS011;5729;43.570;27.826;2023-02-15T10:51:03;12.57;;;7.72;;
11348;SDS011;5729;43.570;27.826;2023-02-15T10:56:32;16.02;;;7.82;;
11348;SDS011;5729;43.570;27.826;2023-02-15T11:04:48;12.88;;;7.55;;
11348;SDS011;5729;43.570;27.826;2023-02-15T11:07:24;13.85;;;8.43;;
11348;SDS011;5729;43.570;27.826;2023-02-15T11:12:38;15.13;;;8.40;;
11348;SDS011;5729;43.570;27.826;2023-02-15T11:15:14;14.18;;;7.22;;
11348;SDS011;5729;43.570;27.826;2023-02-15T11:18:15;17.25;;;8.27;;
11348;SDS011;5729;43.570;27.826;2023-02-15T11:23:44;11.48;;;7.60;;
11348;SDS011;5729;43.570;27.826;2023-02-15T11:26:15;15.45;;;7.97;;
11348;SDS011;5729;43.570;27.826;2023-02-15T11:28:51;14.05;;;8.75;;
11348;SDS011;5729;43.570;27.826;2023-02-15T11:31:22;12.15;;;8.25;;
11348;SDS011;5729;43.570;27.826;2023-02-15T11:34:00;16.63;;;10.77;;
11348;SDS011;5729;43.570;27.826;2023-02-15T11:36:34;13.35;;;8.25;;
11348;SDS011;5729;43.570;27.826;2023-02-15T11:39:07;17.48;;;9.07;;
11348;SDS011;5729;43.570;27.826;2023-02-15T11:41:52;14.15;;;10.35;;
11348;SDS011;5729;43.570;27.826;2023-02-15T11:44:25;21.00;;;13.32;;
11348;SDS011;5729;43.570;27.826;2023-02-15T11:46:56;27.73;;;15.75;;
11348;SDS011;5729;43.570;27.826;2023-02-15T11:49:31;49.13;;;26.15;;
11348;SDS011;5729;43.570;27.826;2023-02-15T11:52:00;33.30;;;21.83;;
11348;SDS011;5729;43.570;27.826;2023-02-15T11:54:30;18.38;;;11.40;;
11348;SDS011;5729;43.570;27.826;2023-02-15T11:57:03;172.48;;;78.45;;
11348;SDS011;5729;43.570;27.826;2023-02-15T11:59:40;32.08;;;18.52;;
11348;SDS011;5729;43.570;27.826;2023-02-15T12:02:17;15.30;;;11.00;;
11348;SDS011;5729;43.570;27.826;2023-02-15T12:05:07;14.48;;;11.20;;
11348;SDS011;5729;43.570;27.826;2023-02-15T12:07:45;20.90;;;13.00;;
11348;SDS011;5729;43.570;27.826;2023-02-15T12:10:17;16.55;;;10.27;;
11348;SDS011;5729;43.570;27.826;2023-02-15T12:12:49;19.20;;;12.15;;
11348;SDS011;5729;43.570;27.826;2023-02-15T12:15:34;15.55;;;11.57;;
11348;SDS011;5729;43.570;27.826;2023-02-15T12:18:02;17.98;;;11.27;;
11348;SDS011;5729;43.570;27.826;2023-02-15T12:20:29;19.17;;;12.93;;
11348;SDS011;5729;43.570;27.826;2023-02-15T12:23:01;16.25;;;11.90;;
11348;SDS011;5729;43.570;27.826;2023-02-15T12:25:36;24.15;;;17.10;;
11348;SDS011;5729;43.570;27.826;2023-02-15T12:28:40;26.80;;;18.08;;
11348;SDS011;5729;43.570;27.826;2023-02-15T12:31:22;25.23;;;16.38;;
11348;SDS011;5729;43.570;27.826;2023-02-15T12:34:02;15.57;;;11.52;;
11348;SDS011;5729;43.570;27.826;2023-02-15T12:36:45;15.35;;;9.93;;
11348;SDS011;5729;43.570;27.826;2023-02-15T12:39:23;25.48;;;14.00;;
11348;SDS011;5729;43.570;27.826;2023-02-15T12:44:24;27.92;;;18.60;;
11348;SDS011;5729;43.570;27.826;2023-02-15T12:49:22;18.88;;;13.32;;
11348;SDS011;5729;43.570;27.826;2023-02-15T12:51:52;15.80;;;11.63;;
11348;SDS011;5729;43.570;27.826;2023-02-15T12:56:49;18.80;;;12.70;;
11348;SDS011;5729;43.570;27.826;2023-02-15T12:59:15;15.40;;;12.23;;
11348;SDS011;5729;43.570;27.826;2023-02-15T13:01:45;19.00;;;13.60;;
11348;SDS011;5729;43.570;27.826;2023-02-15T13:07:12;23.85;;;16.52;;
11348;SDS011;5729;43.570;27.826;2023-02-15T13:09:38;16.73;;;12.77;;
11348;SDS011;5729;43.570;27.826;2023-02-15T13:12:25;19.23;;;13.80;;
11348;SDS011;5729;43.570;27.826;2023-02-15T13:14:55;17.42;;;13.02;;
11348;SDS011;5729;43.570;27.826;2023-02-15T13:17:24;12.68;;;9.32;;
11348;SDS011;5729;43.570;27.826;2023-02-15T13:20:05;13.77;;;10.25;;
11348;SDS011;5729;43.570;27.826;2023-02-15T13:22:44;17.75;;;9.48;;
11348;SDS011;5729;43.570;27.826;2023-02-15T13:25:14;12.90;;;9.65;;
11348;SDS011;5729;43.570;27.826;2023-02-15T13:27:44;13.68;;;10.30;;
11348;SDS011;5729;43.570;27.826;2023-02-15T13:30:24;15.15;;;11.30;;
11348;SDS011;5729;43.570;27.826;2023-02-15T13:32:54;16.00;;;8.65;;
11348;SDS011;5729;43.570;27.826;2023-02-15T13:35:22;12.57;;;8.95;;
11348;SDS011;5729;43.570;27.826;2023-02-15T13:40:24;20.40;;;13.27;;
11348;SDS011;5729;43.570;27.826;2023-02-15T14:16:27;32.63;;;19.88;;
11348;SDS011;5729;43.570;27.826;2023-02-15T14:30:32;53.53;;;31.65;;
11348;SDS011;5729;43.570;27.826;2023-02-15T14:35:34;34.33;;;22.88;;
11348;SDS011;5729;43.570;27.826;2023-02-15T14:48:50;37.78;;;21.58;;
11348;SDS011;5729;43.570;27.826;2023-02-15T14:52:05;22.25;;;14.02;;
11348;SDS011;5729;43.570;27.826;2023-02-15T14:54:52;35.72;;;21.42;;
11348;SDS011;5729;43.570;27.826;2023-02-15T14:59:43;46.10;;;27.67;;
11348;SDS011;5729;43.570;27.826;2023-02-15T15:05:13;30.95;;;19.92;;
11348;SDS011;5729;43.570;27.826;2023-02-15T15:08:01;42.42;;;25.20;;
11348;SDS011;5729;43.570;27.826;2023-02-15T15:10:39;34.65;;;21.50;;
11348;SDS011;5729;43.570;27.826;2023-02-15T15:18:53;254.88;;;123.60;;
11348;SDS011;5729;43.570;27.826;2023-02-15T15:24:09;53.78;;;29.67;;
11348;SDS011;5729;43.570;27.826;2023-02-15T15:29:58;57.33;;;34.72;;
11348;SDS011;5729;43.570;27.826;2023-02-15T15:32:24;95.82;;;55.10;;
11348;SDS011;5729;43.570;27.826;2023-02-15T15:49:12;18.27;;;11.25;;
11348;SDS011;5729;43.570;27.826;2023-02-15T15:51:44;32.95;;;17.42;;
11348;SDS011;5729;43.570;27.826;2023-02-15T15:54:20;35.35;;;18.95;;
11348;SDS011;5729;43.570;27.826;2023-02-15T15:56:54;28.50;;;16.55;;
11348;SDS011;5729;43.570;27.826;2023-02-15T15:59:27;49.70;;;24.58;;
11348;SDS011;5729;43.570;27.826;2023-02-15T16:01:55;116.35;;;59.85;;
11348;SDS011;5729;43.570;27.826;2023-02-15T16:04:29;61.65;;;35.33;;
11348;SDS011;5729;43.570;27.826;2023-02-15T16:06:58;60.33;;;30.17;;
11348;SDS011;5729;43.570;27.826;2023-02-15T16:09:39;58.63;;;30.23;;
11348;SDS011;5729;43.570;27.826;2023-02-15T16:12:04;70.20;;;41.65;;
11348;SDS011;5729;43.570;27.826;2023-02-15T16:14:40;45.70;;;26.23;;
11348;SDS011;5729;43.570;27.826;2023-02-15T16:17:13;74.90;;;44.65;;
11348;SDS011;5729;43.570;27.826;2023-02-15T16:19:44;58.70;;;31.83;;
11348;SDS011;5729;43.570;27.826;2023-02-15T16:22:11;68.93;;;38.20;;
11348;SDS011;5729;43.570;27.826;2023-02-15T16:27:34;47.35;;;28.05;;
11348;SDS011;5729;43.570;27.826;2023-02-15T16:32:49;49.03;;;29.40;;
11348;SDS011;5729;43.570;27.826;2023-02-15T16:35:19;51.88;;;29.98;;
11348;SDS011;5729;43.570;27.826;2023-02-15T16:37:45;62.67;;;29.77;;
11348;SDS011;5729;43.570;27.826;2023-02-15T16:42:52;62.78;;;39.40;;
11348;SDS011;5729;43.570;27.826;2023-02-15T16:45:22;59.92;;;33.22;;
11348;SDS011;5729;43.570;27.826;2023-02-15T16:47:52;57.88;;;35.03;;
11348;SDS011;5729;43.570;27.826;2023-02-15T16:50:21;59.10;;;31.88;;
11348;SDS011;5729;43.570;27.826;2023-02-15T16:53:02;45.38;;;28.50;;
11348;SDS011;5729;43.570;27.826;2023-02-15T16:55:39;54.92;;;30.73;;
11348;SDS011;5729;43.570;27.826;2023-02-15T16:58:11;59.17;;;38.17;;
11348;SDS011;5729;43.570;27.826;2023-02-15T17:00:40;55.60;;;31.73;;
11348;SDS011;5729;43.570;27.826;2023-02-15T17:11:21;59.92;;;27.83;;
11348;SDS011;5729;43.570;27.826;2023-02-15T17:16:43;140.85;;;66.47;;
11348;SDS011;5729;43.570;27.826;2023-02-15T17:19:18;287.98;;;141.85;;
11348;SDS011;5729;43.570;27.826;2023-02-15T17:21:56;91.47;;;48.22;;
11348;SDS011;5729;43.570;27.826;2023-02-15T17:24:28;67.30;;;38.50;;
11348;SDS011;5729;43.570;27.826;2023-02-15T17:27:00;89.60;;;52.10;;
11348;SDS011;5729;43.570;27.826;2023-02-15T17:32:10;68.85;;;39.95;;
11348;SDS011;5729;43.570;27.826;2023-02-15T17:37:13;56.60;;;32.83;;
11348;SDS011;5729;43.570;27.826;2023-02-15T17:39:50;63.65;;;33.58;;
11348;SDS011;5729;43.570;27.826;2023-02-15T17:42:15;73.57;;;39.53;;
11348;SDS011;5729;43.570;27.826;2023-02-15T17:44:41;70.18;;;40.50;;
11348;SDS011;5729;43.570;27.826;2023-02-15T17:47:06;66.32;;;38.85;;
11348;SDS011;5729;43.570;27.826;2023-02-15T17:49:34;85.55;;;44.88;;
11348;SDS011;5729;43.570;27.826;2023-02-15T17:52:02;93.65;;;43.25;;
11348;SDS011;5729;43.570;27.826;2023-02-15T17:54:28;87.82;;;44.83;;
11348;SDS011;5729;43.570;27.826;2023-02-15T17:57:14;100.13;;;49.88;;
11348;SDS011;5729;43.570;27.826;2023-02-15T17:59:40;93.32;;;47.28;;
11348;SDS011;5729;43.570;27.826;2023-02-15T18:02:25;109.47;;;50.70;;
11348;SDS011;5729;43.570;27.826;2023-02-15T18:05:15;88.32;;;45.20;;
11348;SDS011;5729;43.570;27.826;2023-02-15T18:07:59;100.80;;;50.53;;
11348;SDS011;5729;43.570;27.826;2023-02-15T18:10:43;133.77;;;65.32;;
11348;SDS011;5729;43.570;27.826;2023-02-15T18:13:27;117.70;;;57.95;;
11348;SDS011;5729;43.570;27.826;2023-02-15T18:15:53;128.30;;;59.28;;
11348;SDS011;5729;43.570;27.826;2023-02-15T18:18:20;97.90;;;49.97;;
11348;SDS011;5729;43.570;27.826;2023-02-15T18:20:46;104.18;;;48.78;;
11348;SDS011;5729;43.570;27.826;2023-02-15T18:23:15;97.53;;;49.00;;
11348;SDS011;5729;43.570;27.826;2023-02-15T18:25:40;93.20;;;50.55;;
11348;SDS011;5729;43.570;27.826;2023-02-15T18:28:07;93.73;;;50.27;;
11348;SDS011;5729;43.570;27.826;2023-02-15T18:30:34;122.23;;;61.47;;
11348;SDS011;5729;43.570;27.826;2023-02-15T18:33:00;103.80;;;55.60;;